KMEI/MEI METAR and TAF weather

Enter ICAO airport designator
Station Type Date Time Source
KMEI METAR 2019/11/15 04:58 UTC NOAA

KMEI 150458Z AUTO 33004KT 10SM -RA FEW055 SCT070 BKN100 07/04 A3029 RMK AO2 RAB55 SLP256 P0000 T00670044


Station Type Date Time Source
KMEI Decoded METAR 2019/11/15 04:58 UTC NOAA

MERIDIAN KEY FIELD, MS, United States (KMEI) 32-20N 088-45W 89M
Nov 14, 2019 - 11:58 PM EST / 2019.11.15 0458 UTC
Wind: from the NNW (330 degrees) at 5 MPH (4 KT):0
Visibility: 10 mile(s):0
Sky conditions: mostly cloudy
Weather: light rain
Precipitation last hour: A trace
Temperature: 44.1 F (6.7 C)
Dew Point: 39.9 F (4.4 C)
Relative Humidity: 85%
Pressure (altimeter): 30.29 in. Hg (1025 hPa)
ob: KMEI 150458Z AUTO 33004KT 10SM -RA FEW055 SCT070 BKN100 07/04 A3029 RMK AO2 RAB55 SLP256 P0000 T00670044
cycle: 5

Station Type Date Time Source
KMEI TAF 2019/11/15 06:36 UTC NOAA

TAF KMEI 150534Z 1506/1606 34004KT P6SM -RA SCT050 BKN100
FM151000 35005KT P6SM SCT120
FM151600 36012G19KT P6SM SKC
FM160000 35007KT P6SM SKC

Example: see airport list